createdAt,value
2022-08-11T00:00:20.753Z,723.26
2022-08-11T00:01:20.769Z,723.52
2022-08-11T00:02:20.840Z,723.88
2022-08-11T00:03:20.772Z,723.63
2022-08-11T00:04:20.701Z,723.96
2022-08-11T00:05:20.694Z,724.25
2022-08-11T00:06:20.707Z,724.35
2022-08-11T00:07:20.709Z,724.63
2022-08-11T00:08:20.660Z,724.97
2022-08-11T00:09:20.648Z,725.86
2022-08-11T00:10:20.644Z,726.69
2022-08-11T00:11:20.667Z,726.89
2022-08-11T00:12:20.623Z,727.58
2022-08-11T00:13:20.607Z,727.85
2022-08-11T00:14:20.609Z,728.79
2022-08-11T00:15:20.604Z,728.85
2022-08-11T00:16:20.595Z,729.58
2022-08-11T00:17:20.571Z,729.42
2022-08-11T00:18:20.554Z,730.24
2022-08-11T00:20:14.389Z,730.05
2022-08-11T00:20:20.531Z,729.92
2022-08-11T00:21:20.547Z,729.63
2022-08-11T00:22:20.510Z,728.95
2022-08-11T00:23:20.490Z,728.79
2022-08-11T00:24:20.486Z,728.92
2022-08-11T00:25:20.478Z,729.47
2022-08-11T00:26:20.490Z,729.47
2022-08-11T00:27:20.471Z,729.86
2022-08-11T00:28:20.446Z,730.55
2022-08-11T00:29:20.443Z,731.48
2022-08-11T00:30:20.419Z,732.24
2022-08-11T00:31:20.421Z,732.88
2022-08-11T00:32:20.399Z,733.20
2022-08-11T00:33:20.383Z,733.58
2022-08-11T00:34:20.374Z,734.38
2022-08-11T00:35:54.865Z,734.77
2022-08-11T00:36:25.282Z,735.22
2022-08-11T00:37:20.335Z,735.75
2022-08-11T00:38:20.332Z,736.20
2022-08-11T00:39:20.481Z,736.92
2022-08-11T00:40:20.300Z,737.65
2022-08-11T00:41:20.289Z,737.94
2022-08-11T00:42:20.361Z,738.45
2022-08-11T00:43:21.054Z,738.84
2022-08-11T00:44:20.277Z,739.29
2022-08-11T00:45:20.267Z,739.55
2022-08-11T00:47:29.233Z,738.87
2022-08-11T00:48:30.196Z,737.76
2022-08-11T00:49:30.200Z,737.77
2022-08-11T00:50:30.167Z,737.76
2022-08-11T00:51:56.689Z,738.27
2022-08-11T00:52:30.196Z,738.44
2022-08-11T00:53:30.139Z,739.29
2022-08-11T00:54:30.121Z,739.80
2022-08-11T00:55:30.106Z,740.57
2022-08-11T00:56:30.089Z,740.97
2022-08-11T00:57:36.978Z,741.16
2022-08-11T00:58:30.075Z,741.57
2022-08-11T00:59:35.064Z,741.25
2022-08-11T01:00:30.049Z,742.24
2022-08-11T01:01:30.147Z,743.00
2022-08-11T01:02:30.782Z,743.46
2022-08-11T01:03:30.022Z,744.99
2022-08-11T01:04:30.014Z,745.67
2022-08-11T01:05:29.988Z,745.78
2022-08-11T01:06:29.980Z,745.90
2022-08-11T01:08:01.002Z,746.29
2022-08-11T01:08:29.959Z,746.18
2022-08-11T01:09:29.947Z,746.02
2022-08-11T01:10:29.941Z,746.25
2022-08-11T01:11:29.931Z,746.41
2022-08-11T01:12:29.912Z,746.45
2022-08-11T01:13:29.936Z,747.11
2022-08-11T01:14:34.385Z,747.39
2022-08-11T01:15:29.877Z,748.07
2022-08-11T01:16:29.874Z,748.92
2022-08-11T01:17:29.862Z,750.03
2022-08-11T01:18:29.868Z,751.17
2022-08-11T01:19:29.834Z,751.89
2022-08-11T01:20:46.881Z,752.87
2022-08-11T01:21:29.816Z,753.47
2022-08-11T01:22:29.803Z,754.28
2022-08-11T01:23:29.804Z,755.18
2022-08-11T01:24:29.803Z,755.77
2022-08-11T01:25:29.770Z,756.48
2022-08-11T01:26:29.758Z,756.85
2022-08-11T01:27:29.742Z,757.17
2022-08-11T01:28:29.730Z,756.63
2022-08-11T01:29:29.748Z,756.40
2022-08-11T01:30:29.721Z,756.13
2022-08-11T01:31:29.719Z,756.37
2022-08-11T01:32:29.690Z,756.54
2022-08-11T01:33:29.678Z,756.67
2022-08-11T01:34:29.688Z,757.44
2022-08-11T01:35:29.659Z,757.53
2022-08-11T01:36:29.651Z,757.51
2022-08-11T01:37:29.632Z,757.71
2022-08-11T01:38:29.617Z,758.68
2022-08-11T01:39:29.696Z,759.45
2022-08-11T01:40:30.562Z,759.96
2022-08-11T01:41:29.589Z,759.84
2022-08-11T01:42:29.573Z,759.69
2022-08-11T01:43:29.563Z,758.72
2022-08-11T01:44:29.567Z,756.91
2022-08-11T01:45:29.549Z,755.86
2022-08-11T01:46:29.528Z,754.96
2022-08-11T01:47:29.560Z,754.30
2022-08-11T01:48:29.513Z,754.38
2022-08-11T01:50:07.662Z,754.62
2022-08-11T01:50:29.486Z,754.89
2022-08-11T01:51:29.487Z,755.29
2022-08-11T01:52:30.174Z,755.18
2022-08-11T01:53:29.460Z,754.79
2022-08-11T01:54:29.440Z,754.72
2022-08-11T01:55:29.428Z,754.97
2022-08-11T01:56:29.421Z,755.47
2022-08-11T01:57:29.414Z,756.20
2022-08-11T01:58:43.567Z,757.02
2022-08-11T01:59:29.386Z,757.76
2022-08-11T02:00:29.452Z,758.55
2022-08-11T02:01:29.360Z,759.01
2022-08-11T02:02:29.438Z,759.50
2022-08-11T02:03:29.342Z,760.18
2022-08-11T02:04:29.327Z,760.95
2022-08-11T02:05:29.377Z,762.09
2022-08-11T02:06:29.309Z,763.20
2022-08-11T02:07:29.319Z,763.88
2022-08-11T02:08:33.629Z,764.24
2022-08-11T02:09:29.283Z,764.67
2022-08-11T02:10:36.592Z,765.16
2022-08-11T02:11:29.250Z,765.54
2022-08-11T02:12:29.284Z,765.49
2022-08-11T02:13:35.593Z,765.43
2022-08-11T02:14:29.211Z,765.73
2022-08-11T02:15:29.205Z,765.94
2022-08-11T02:16:29.222Z,766.28
2022-08-11T02:17:29.203Z,765.88
2022-08-11T02:18:29.184Z,765.75
2022-08-11T02:19:29.156Z,765.24
2022-08-11T02:20:29.149Z,764.84
2022-08-11T02:21:29.137Z,764.37
2022-08-11T02:22:29.156Z,763.81
2022-08-11T02:23:59.582Z,762.36
2022-08-11T02:24:29.104Z,761.73
2022-08-11T02:25:29.092Z,761.07
2022-08-11T02:26:29.091Z,760.75
2022-08-11T02:27:29.098Z,760.59
2022-08-11T02:28:29.093Z,760.84
2022-08-11T02:29:29.042Z,761.07
2022-08-11T02:30:29.042Z,760.88
2022-08-11T02:32:15.488Z,760.61
2022-08-11T02:32:30.680Z,760.25
2022-08-11T02:33:29.004Z,760.18
2022-08-11T02:34:29.020Z,760.90
2022-08-11T02:35:28.976Z,761.23
2022-08-11T02:36:28.966Z,761.49
2022-08-11T02:37:28.960Z,761.42
2022-08-11T02:38:28.951Z,761.23
2022-08-11T02:39:29.020Z,761.36
2022-08-11T02:40:28.925Z,761.88
2022-08-11T02:41:28.908Z,762.07
2022-08-11T02:42:42.266Z,762.41
2022-08-11T02:43:28.892Z,762.83
2022-08-11T02:44:28.901Z,763.33
2022-08-11T02:45:28.875Z,763.94
2022-08-11T02:46:28.861Z,764.11
2022-08-11T02:48:38.224Z,766.35
2022-08-11T02:49:38.811Z,766.31
2022-08-11T02:50:38.784Z,767.25
2022-08-11T02:51:38.792Z,768.25
2022-08-11T02:52:38.948Z,769.33
2022-08-11T02:53:38.744Z,770.41
2022-08-11T02:54:38.738Z,770.54
2022-08-11T02:55:55.554Z,769.96
2022-08-11T02:56:38.750Z,770.12
2022-08-11T02:57:38.703Z,770.54
2022-08-11T02:58:38.695Z,771.11
2022-08-11T02:59:38.677Z,771.13
2022-08-11T03:00:38.682Z,770.47
2022-08-11T03:01:38.716Z,770.51
2022-08-11T03:02:38.967Z,771.15
2022-08-11T03:03:38.644Z,771.31
2022-08-11T03:04:38.623Z,770.87
2022-08-11T03:05:38.644Z,771.20
2022-08-11T03:06:38.614Z,771.60
2022-08-11T03:07:38.597Z,772.07
2022-08-11T03:08:38.587Z,771.93
2022-08-11T03:09:38.572Z,771.39
2022-08-11T03:10:38.582Z,771.32
2022-08-11T03:11:38.558Z,771.61
2022-08-11T03:12:38.784Z,772.17
2022-08-11T03:13:38.555Z,772.59
2022-08-11T03:14:38.524Z,771.90
2022-08-11T03:15:38.659Z,771.73
2022-08-11T03:16:38.499Z,771.65
2022-08-11T03:17:38.481Z,771.34
2022-08-11T03:18:38.475Z,770.84
2022-08-11T03:19:38.462Z,770.25
2022-08-11T03:20:39.318Z,770.10
2022-08-11T03:22:01.695Z,769.86
2022-08-11T03:22:38.724Z,769.53
2022-08-11T03:23:38.417Z,768.89
2022-08-11T03:24:38.411Z,768.08
2022-08-11T03:25:38.425Z,767.27
2022-08-11T03:26:38.388Z,766.50
2022-08-11T03:27:38.372Z,765.94
2022-08-11T03:28:38.373Z,765.24
2022-08-11T03:29:38.351Z,765.04
2022-08-11T03:30:38.364Z,765.08
2022-08-11T03:31:38.343Z,764.94
2022-08-11T03:32:38.534Z,764.99
2022-08-11T03:33:38.312Z,765.16
2022-08-11T03:34:38.321Z,765.24
2022-08-11T03:35:38.309Z,765.67
2022-08-11T03:37:06.813Z,766.18
2022-08-11T03:37:38.267Z,766.65
2022-08-11T03:38:38.253Z,767.08
2022-08-11T03:39:38.338Z,767.24
2022-08-11T03:40:38.246Z,766.54
2022-08-11T03:42:04.395Z,766.39
2022-08-11T03:42:38.459Z,766.36
2022-08-11T03:43:39.063Z,766.82
2022-08-11T03:44:38.186Z,767.72
2022-08-11T03:45:41.115Z,768.43
2022-08-11T03:46:38.172Z,769.21
2022-08-11T03:47:38.183Z,769.50
2022-08-11T03:48:38.154Z,769.25
2022-08-11T03:49:38.131Z,769.37
2022-08-11T03:50:38.121Z,769.38
2022-08-11T03:51:44.823Z,769.82
2022-08-11T03:52:39.146Z,770.46
2022-08-11T03:53:38.095Z,769.99
2022-08-11T03:54:38.077Z,769.35
2022-08-11T03:55:38.078Z,768.44
2022-08-11T03:56:38.053Z,768.01
2022-08-11T03:57:38.074Z,766.97
2022-08-11T03:58:41.709Z,766.18
2022-08-11T03:59:38.021Z,766.03
2022-08-11T04:00:38.010Z,765.30
2022-08-11T04:01:38.066Z,764.89
2022-08-11T04:02:38.181Z,764.92
2022-08-11T04:03:37.974Z,765.08
2022-08-11T04:04:37.976Z,765.34
2022-08-11T04:05:37.949Z,765.46
2022-08-11T04:06:37.935Z,765.88
2022-08-11T04:07:37.941Z,765.87
2022-08-11T04:08:37.935Z,765.38
2022-08-11T04:09:37.923Z,764.81
2022-08-11T04:10:37.940Z,764.17
2022-08-11T04:11:37.883Z,763.79
2022-08-11T04:12:37.870Z,763.66
2022-08-11T04:13:37.871Z,763.72
2022-08-11T04:14:37.852Z,763.80
2022-08-11T04:15:37.864Z,763.69
2022-08-11T04:16:37.837Z,763.10
2022-08-11T04:17:37.822Z,762.85
2022-08-11T04:18:37.805Z,762.93
2022-08-11T04:19:37.811Z,762.71
2022-08-11T04:20:37.807Z,762.58
2022-08-11T04:21:37.781Z,762.63
2022-08-11T04:22:37.935Z,762.81
2022-08-11T04:24:13.249Z,763.25
2022-08-11T04:24:39.836Z,763.43
2022-08-11T04:25:51.090Z,763.45
2022-08-11T04:26:37.722Z,763.62
2022-08-11T04:27:39.275Z,763.65
2022-08-11T04:28:43.111Z,763.56
2022-08-11T04:30:03.167Z,763.60
2022-08-11T04:30:40.660Z,763.77
2022-08-11T04:31:48.810Z,764.03
2022-08-11T04:32:37.837Z,764.11
2022-08-11T04:33:37.696Z,764.45
2022-08-11T04:34:37.634Z,764.47
2022-08-11T04:35:37.620Z,763.87
2022-08-11T04:36:37.612Z,763.42
2022-08-11T04:37:37.594Z,762.70
2022-08-11T04:38:37.618Z,762.41
2022-08-11T04:39:37.660Z,761.63
2022-08-11T04:40:37.559Z,761.46
2022-08-11T04:41:37.552Z,761.21
2022-08-11T04:42:37.557Z,760.75
2022-08-11T04:43:37.538Z,760.50
2022-08-11T04:44:37.517Z,759.86
2022-08-11T04:45:37.509Z,759.90
2022-08-11T04:46:37.524Z,759.96
2022-08-11T04:48:01.803Z,760.15
2022-08-11T04:49:46.456Z,760.38
2022-08-11T04:51:09.290Z,759.69
2022-08-11T04:51:47.441Z,759.58
2022-08-11T04:52:47.400Z,759.39
2022-08-11T04:53:47.391Z,759.30
2022-08-11T04:54:47.373Z,759.44
2022-08-11T04:55:47.367Z,759.14
2022-08-11T04:56:47.378Z,759.04
2022-08-11T04:57:47.351Z,758.58
2022-08-11T04:58:47.336Z,758.37
2022-08-11T04:59:47.321Z,757.87
2022-08-11T05:00:47.314Z,757.24
2022-08-11T05:01:47.357Z,756.89
2022-08-11T05:02:47.293Z,756.42
2022-08-11T05:03:47.272Z,756.15
2022-08-11T05:04:47.266Z,756.07
2022-08-11T05:05:56.402Z,755.69
2022-08-11T05:06:47.265Z,755.48
2022-08-11T05:07:47.232Z,755.32
2022-08-11T05:08:47.223Z,755.21
2022-08-11T05:09:47.211Z,755.02
2022-08-11T05:10:47.200Z,754.37
2022-08-11T05:11:47.211Z,754.07
2022-08-11T05:12:47.177Z,753.99
2022-08-11T05:13:47.160Z,753.71
2022-08-11T05:14:47.155Z,753.59
2022-08-11T05:15:49.609Z,753.18
2022-08-11T05:16:47.154Z,752.88
2022-08-11T05:17:47.120Z,752.58
2022-08-11T05:18:47.105Z,752.33
2022-08-11T05:19:47.095Z,751.63
2022-08-11T05:20:47.092Z,750.75
2022-08-11T05:21:47.082Z,749.36
2022-08-11T05:22:47.125Z,747.62
2022-08-11T05:23:47.067Z,746.51
2022-08-11T05:24:47.035Z,745.04
2022-08-11T05:26:43.643Z,744.08
2022-08-11T05:26:49.632Z,743.00
2022-08-11T05:27:47.003Z,741.95
2022-08-11T05:28:47.026Z,741.00
2022-08-11T05:29:46.984Z,739.97
2022-08-11T05:30:46.976Z,738.96
2022-08-11T05:31:46.977Z,737.95
2022-08-11T05:32:47.182Z,737.06
2022-08-11T05:33:46.967Z,736.13
2022-08-11T05:34:46.931Z,735.33
2022-08-11T05:36:01.595Z,734.53
2022-08-11T05:36:46.909Z,733.53
2022-08-11T05:37:46.901Z,732.58
2022-08-11T05:38:46.906Z,731.58
2022-08-11T05:39:46.980Z,730.54
2022-08-11T05:40:51.116Z,729.56
2022-08-11T05:41:46.856Z,728.66
2022-08-11T05:42:46.842Z,727.64
2022-08-11T05:44:20.330Z,726.68
2022-08-11T05:44:46.830Z,725.86
2022-08-11T05:46:02.564Z,724.81
2022-08-11T05:46:46.842Z,724.16
2022-08-11T05:47:46.796Z,723.44
2022-08-11T05:48:46.811Z,722.66
2022-08-11T05:49:46.774Z,722.15
2022-08-11T05:50:46.753Z,721.42
2022-08-11T05:51:54.683Z,720.51
2022-08-11T05:52:47.150Z,719.86
2022-08-11T05:53:46.754Z,719.49
2022-08-11T05:54:46.929Z,718.81
2022-08-11T05:55:52.547Z,718.13
2022-08-11T05:56:46.719Z,717.63
2022-08-11T05:57:51.189Z,717.05
2022-08-11T05:58:46.721Z,716.74
2022-08-11T05:59:46.678Z,716.50
2022-08-11T06:00:47.426Z,716.03
2022-08-11T06:01:46.677Z,715.60
2022-08-11T06:02:46.642Z,715.01
2022-08-11T06:03:57.649Z,714.27
2022-08-11T06:04:46.602Z,713.78
2022-08-11T06:05:46.631Z,713.54
2022-08-11T06:09:34.715Z,712.46
2022-08-11T06:09:54.569Z,711.47
2022-08-11T06:10:09.459Z,711.95
2022-08-11T06:10:46.545Z,710.72
2022-08-11T06:11:46.580Z,710.51
2022-08-11T06:12:46.508Z,709.65
2022-08-11T06:13:46.504Z,709.58
2022-08-11T06:14:46.546Z,708.65
2022-08-11T06:15:46.483Z,708.27
2022-08-11T06:16:46.472Z,708.00
2022-08-11T06:17:46.479Z,707.71
2022-08-11T06:18:46.459Z,707.57
2022-08-11T06:19:46.472Z,707.10
2022-08-11T06:20:46.427Z,706.87
2022-08-11T06:21:46.416Z,706.96
2022-08-11T06:22:50.870Z,706.36
2022-08-11T06:23:46.404Z,706.17
2022-08-11T06:24:46.398Z,706.44
2022-08-11T06:25:46.368Z,706.40
2022-08-11T06:27:10.797Z,705.88
2022-08-11T06:27:46.351Z,705.40
2022-08-11T06:28:46.398Z,705.42
2022-08-11T06:29:54.290Z,705.15
2022-08-11T06:30:46.324Z,704.74
2022-08-11T06:31:46.307Z,704.13
2022-08-11T06:32:46.292Z,704.33
2022-08-11T06:33:46.311Z,703.87
2022-08-11T06:34:46.295Z,704.43
2022-08-11T06:35:46.320Z,704.32
2022-08-11T06:36:46.270Z,703.72
2022-08-11T06:37:46.307Z,702.59
2022-08-11T06:38:46.261Z,702.10
2022-08-11T06:39:46.300Z,702.18
2022-08-11T06:40:46.192Z,701.81
2022-08-11T06:41:46.302Z,701.85
2022-08-11T06:42:46.236Z,701.03
2022-08-11T06:43:55.831Z,700.43
2022-08-11T06:44:46.167Z,700.54
2022-08-11T06:45:46.143Z,701.47
2022-08-11T06:46:46.158Z,702.45
2022-08-11T06:47:46.992Z,702.57
2022-08-11T06:48:46.204Z,703.04
2022-08-11T06:50:55.075Z,702.40
2022-08-11T06:51:56.057Z,701.46
2022-08-11T06:52:56.047Z,700.72
2022-08-11T06:54:03.829Z,700.25
2022-08-11T06:54:56.022Z,699.96
2022-08-11T06:55:58.949Z,699.75
2022-08-11T06:57:56.002Z,699.23
2022-08-11T06:58:55.988Z,699.24
2022-08-11T06:59:55.988Z,699.11
2022-08-11T07:00:55.961Z,698.48
2022-08-11T07:01:56.096Z,698.13
2022-08-11T07:02:55.946Z,698.20
2022-08-11T07:05:16.445Z,697.69
2022-08-11T07:06:17.307Z,696.65
2022-08-11T07:07:17.297Z,696.15
2022-08-11T07:08:33.642Z,694.93
2022-08-11T07:09:17.343Z,694.71
2022-08-11T07:10:17.305Z,694.34
2022-08-11T07:11:17.281Z,694.26
2022-08-11T07:12:17.251Z,694.20
2022-08-11T07:13:38.197Z,693.91
2022-08-11T07:14:17.225Z,693.60
2022-08-11T07:15:17.240Z,692.51
2022-08-11T07:16:17.621Z,692.29
2022-08-11T07:17:17.200Z,691.63
2022-08-11T07:18:17.175Z,691.15
2022-08-11T07:19:17.181Z,690.89
2022-08-11T07:22:00.790Z,691.16
2022-08-11T07:28:25.739Z,689.18
2022-08-11T07:31:21.300Z,687.96
2022-08-11T07:32:17.949Z,688.69
2022-08-11T07:32:18.050Z,687.78
2022-08-11T07:34:05.058Z,687.20
2022-08-11T07:34:07.221Z,691.14
2022-08-11T07:34:07.243Z,690.11
2022-08-11T07:34:18.297Z,686.94
2022-08-11T07:35:17.002Z,687.03
2022-08-11T07:36:16.984Z,687.31
2022-08-11T07:37:16.988Z,686.98
2022-08-11T07:38:22.055Z,686.23
2022-08-11T07:39:17.147Z,685.68
2022-08-11T07:40:16.941Z,684.80
2022-08-11T07:41:16.935Z,684.38
2022-08-11T07:42:16.925Z,684.49
2022-08-11T07:43:16.909Z,684.43
2022-08-11T07:44:16.924Z,685.46
2022-08-11T07:45:16.890Z,685.72
2022-08-11T07:46:16.885Z,685.39
2022-08-11T07:47:16.877Z,685.69
2022-08-11T07:48:16.885Z,687.45
2022-08-11T07:49:16.902Z,688.11
2022-08-11T07:50:16.848Z,687.28
2022-08-11T07:51:16.824Z,686.73
2022-08-11T07:52:16.811Z,686.64
2022-08-11T07:53:16.797Z,686.72
2022-08-11T07:54:17.534Z,686.18
2022-08-11T07:55:16.785Z,685.53
2022-08-11T07:56:17.375Z,684.98
2022-08-11T07:58:10.176Z,684.19
2022-08-11T07:58:19.915Z,684.02
2022-08-11T07:59:16.732Z,683.19
2022-08-11T08:00:16.754Z,682.64
2022-08-11T08:01:21.683Z,682.40
2022-08-11T08:02:16.810Z,682.39
2022-08-11T08:03:16.696Z,682.17
2022-08-11T08:04:16.688Z,681.71
2022-08-11T08:05:16.970Z,681.32
2022-08-11T08:06:33.575Z,681.19
2022-08-11T08:07:16.679Z,680.49
2022-08-11T08:08:17.303Z,680.18
2022-08-11T08:09:16.632Z,679.61
2022-08-11T08:10:16.619Z,678.98
2022-08-11T08:11:16.637Z,679.45
2022-08-11T08:12:17.189Z,678.82
2022-08-11T08:13:16.602Z,678.14
2022-08-11T08:14:16.577Z,678.05
2022-08-11T08:15:16.571Z,678.03
2022-08-11T08:16:16.550Z,678.16
2022-08-11T08:17:16.577Z,678.43
2022-08-11T08:18:26.144Z,678.75
2022-08-11T08:19:16.609Z,680.64
2022-08-11T08:20:16.514Z,680.65
2022-08-11T08:21:16.506Z,680.22
2022-08-11T08:22:38.334Z,680.26
2022-08-11T08:23:16.498Z,680.56
2022-08-11T08:24:16.466Z,681.14
2022-08-11T08:25:16.465Z,680.85
2022-08-11T08:26:16.883Z,680.06
2022-08-11T08:27:16.473Z,680.21
2022-08-11T08:28:16.446Z,679.28
2022-08-11T08:29:16.420Z,678.84
2022-08-11T08:30:16.441Z,677.92
2022-08-11T08:31:16.423Z,677.17
2022-08-11T08:32:16.397Z,677.15
2022-08-11T08:33:16.421Z,677.17
2022-08-11T08:34:16.364Z,676.97
2022-08-11T08:35:16.918Z,676.62
2022-08-11T08:36:16.409Z,676.43
2022-08-11T08:37:46.118Z,676.03
2022-08-11T08:38:16.398Z,675.25
2022-08-11T08:39:16.371Z,674.75
2022-08-11T08:40:16.302Z,674.16
2022-08-11T08:41:16.773Z,674.02
2022-08-11T08:42:16.291Z,674.43
2022-08-11T08:43:16.302Z,676.46
2022-08-11T08:44:44.948Z,676.06
2022-08-11T08:45:16.260Z,675.69
2022-08-11T08:46:16.238Z,675.54
2022-08-11T08:47:37.524Z,674.67
2022-08-11T08:48:16.241Z,673.91
2022-08-11T08:49:16.313Z,674.53
2022-08-11T08:50:16.713Z,674.52
2022-08-11T08:51:16.231Z,673.73
2022-08-11T08:52:30.921Z,673.14
2022-08-11T08:53:16.156Z,672.94
2022-08-11T08:54:16.190Z,673.34
2022-08-11T08:55:16.147Z,673.00
2022-08-11T08:56:16.136Z,673.26
2022-08-11T08:57:16.150Z,672.89
2022-08-11T08:58:16.119Z,672.66
2022-08-11T08:59:16.161Z,672.72
2022-08-11T09:00:19.421Z,672.45
2022-08-11T09:01:16.163Z,672.13
2022-08-11T09:02:16.073Z,671.98
2022-08-11T09:03:41.011Z,671.78
2022-08-11T09:04:20.345Z,671.19
2022-08-11T09:06:24.586Z,671.00
2022-08-11T09:07:25.526Z,671.17
2022-08-11T09:08:25.589Z,671.41
2022-08-11T09:09:25.523Z,671.19
2022-08-11T09:10:25.522Z,672.55
2022-08-11T09:11:25.464Z,673.05
2022-08-11T09:12:36.540Z,672.92
2022-08-11T09:13:25.430Z,672.47
2022-08-11T09:14:25.450Z,671.46
2022-08-11T09:15:25.425Z,670.91
2022-08-11T09:19:43.943Z,670.25
2022-08-11T09:19:43.945Z,669.40
2022-08-11T09:20:25.466Z,671.79
2022-08-11T09:21:39.765Z,671.70
2022-08-11T09:22:25.603Z,671.20
2022-08-11T09:24:26.498Z,670.29
2022-08-11T09:25:25.406Z,669.80
2022-08-11T09:26:30.837Z,669.70
2022-08-11T09:27:25.335Z,669.13
2022-08-11T09:28:25.293Z,670.01
2022-08-11T09:29:25.262Z,670.83
2022-08-11T09:30:25.283Z,670.66
2022-08-11T09:31:25.232Z,670.47
2022-08-11T09:32:25.237Z,670.07
2022-08-11T09:33:25.215Z,670.63
2022-08-11T09:34:25.204Z,670.83
2022-08-11T09:35:25.224Z,670.46
2022-08-11T09:36:25.515Z,670.13
2022-08-11T09:37:53.419Z,669.61
2022-08-11T09:38:25.347Z,668.81
2022-08-11T09:39:25.301Z,667.97
2022-08-11T09:40:27.282Z,667.90
2022-08-11T09:41:25.593Z,668.10
2022-08-11T09:42:25.128Z,668.50
2022-08-11T09:43:25.104Z,668.60
2022-08-11T09:44:25.097Z,668.25
2022-08-11T09:45:25.109Z,667.62
2022-08-11T09:46:25.079Z,667.33
2022-08-11T09:47:25.158Z,666.72
2022-08-11T09:48:25.059Z,666.48
2022-08-11T09:49:25.040Z,666.75
2022-08-11T09:50:25.033Z,666.30
2022-08-11T09:51:25.023Z,667.14
2022-08-11T09:52:25.006Z,667.15
2022-08-11T09:53:37.777Z,669.25
2022-08-11T09:54:25.006Z,668.90
2022-08-11T09:55:24.982Z,669.47
2022-08-11T09:56:25.028Z,668.96
2022-08-11T09:57:24.972Z,668.98
2022-08-11T09:58:41.921Z,668.46
2022-08-11T09:59:24.942Z,668.52
2022-08-11T10:00:24.925Z,668.75
2022-08-11T10:01:24.994Z,668.76
2022-08-11T10:02:24.907Z,668.86
2022-08-11T10:03:24.891Z,670.28
2022-08-11T10:04:24.878Z,670.38
2022-08-11T10:05:25.086Z,669.70
2022-08-11T10:06:33.353Z,669.44
2022-08-11T10:07:24.908Z,668.94
2022-08-11T10:08:24.853Z,668.55
2022-08-11T10:09:25.275Z,668.21
2022-08-11T10:10:24.839Z,667.93
2022-08-11T10:11:24.851Z,666.81
2022-08-11T10:12:24.853Z,666.10
2022-08-11T10:13:44.087Z,665.22
2022-08-11T10:14:32.632Z,665.23
2022-08-11T10:15:24.770Z,665.57
2022-08-11T10:16:24.775Z,665.66
2022-08-11T10:17:24.878Z,664.97
2022-08-11T10:18:24.731Z,665.39
2022-08-11T10:19:24.841Z,664.96
2022-08-11T10:20:25.919Z,665.07
2022-08-11T10:21:24.742Z,664.91
2022-08-11T10:22:24.695Z,665.32
2022-08-11T10:23:24.678Z,665.14
2022-08-11T10:24:24.664Z,665.02
2022-08-11T10:25:24.650Z,665.19
2022-08-11T10:26:24.702Z,665.42
2022-08-11T10:27:28.994Z,665.55
2022-08-11T10:28:33.600Z,665.29
2022-08-11T10:29:24.631Z,665.34
2022-08-11T10:30:24.599Z,665.18
2022-08-11T10:31:24.612Z,665.03
2022-08-11T10:32:24.698Z,665.55
2022-08-11T10:33:37.839Z,665.94
2022-08-11T10:34:24.573Z,666.00
2022-08-11T10:35:24.555Z,666.51
2022-08-11T10:36:24.564Z,666.08
2022-08-11T10:37:24.581Z,665.44
2022-08-11T10:38:24.523Z,664.83
2022-08-11T10:39:24.585Z,664.48
2022-08-11T10:40:24.490Z,664.26
2022-08-11T10:41:24.500Z,664.98
2022-08-11T10:42:35.424Z,665.71
2022-08-11T10:44:01.185Z,665.98
2022-08-11T10:44:24.492Z,666.47
2022-08-11T10:45:24.473Z,667.04
2022-08-11T10:46:30.020Z,667.35
2022-08-11T10:47:24.488Z,666.54
2022-08-11T10:48:24.401Z,666.05
2022-08-11T10:49:24.477Z,665.80
2022-08-11T10:50:24.423Z,665.26
2022-08-11T10:51:51.647Z,664.74
2022-08-11T10:52:24.394Z,664.31
2022-08-11T10:53:24.396Z,664.70
2022-08-11T10:54:24.440Z,664.79
2022-08-11T10:55:24.337Z,664.17
2022-08-11T10:56:24.377Z,663.91
2022-08-11T10:57:24.460Z,664.43
2022-08-11T10:58:24.465Z,663.80
2022-08-11T10:59:24.542Z,664.37
2022-08-11T11:00:24.437Z,664.86
2022-08-11T11:01:24.449Z,666.27
2022-08-11T11:02:24.327Z,666.14
2022-08-11T11:03:24.282Z,666.22
2022-08-11T11:04:24.290Z,665.95
2022-08-11T11:05:25.234Z,665.17
2022-08-11T11:07:33.419Z,664.33
2022-08-11T11:08:34.230Z,663.48
2022-08-11T11:09:34.266Z,663.25
2022-08-11T11:10:34.177Z,663.15
2022-08-11T11:11:34.185Z,663.02
2022-08-11T11:12:34.184Z,663.55
2022-08-11T11:13:34.338Z,664.09
2022-08-11T11:14:34.917Z,664.36
2022-08-11T11:15:34.133Z,665.08
2022-08-11T11:16:34.277Z,665.56
2022-08-11T11:17:34.112Z,666.20
2022-08-11T11:18:34.089Z,665.63
2022-08-11T11:19:34.132Z,666.23
2022-08-11T11:20:36.678Z,665.78
2022-08-11T11:21:34.060Z,666.18
2022-08-11T11:22:34.168Z,666.29
2022-08-11T11:23:34.033Z,665.87
2022-08-11T11:24:34.043Z,666.02
2022-08-11T11:25:34.028Z,666.45
2022-08-11T11:26:34.011Z,665.96
2022-08-11T11:27:34.680Z,666.10
2022-08-11T11:28:33.985Z,666.22
2022-08-11T11:29:33.975Z,666.07
2022-08-11T11:30:34.006Z,665.45
2022-08-11T11:31:33.953Z,665.90
2022-08-11T11:32:33.996Z,666.38
2022-08-11T11:33:33.947Z,665.64
2022-08-11T11:34:33.932Z,664.83
2022-08-11T11:35:33.935Z,664.40
2022-08-11T11:36:33.903Z,663.71
2022-08-11T11:37:33.888Z,663.50
2022-08-11T11:38:33.908Z,662.91
2022-08-11T11:39:33.947Z,662.26
2022-08-11T11:40:33.884Z,662.34
2022-08-11T11:41:33.849Z,662.10
2022-08-11T11:42:33.892Z,662.13
2022-08-11T11:43:33.836Z,661.97
2022-08-11T11:44:33.841Z,662.41
2022-08-11T11:45:33.842Z,662.57
2022-08-11T11:46:38.876Z,662.62
2022-08-11T11:47:33.798Z,662.30
2022-08-11T11:48:33.786Z,661.33
2022-08-11T11:49:33.769Z,661.15
2022-08-11T11:50:33.773Z,660.40
2022-08-11T11:51:33.761Z,659.90
2022-08-11T11:52:33.840Z,660.90
2022-08-11T11:53:33.724Z,661.24
2022-08-11T11:54:33.741Z,661.48
2022-08-11T11:55:33.716Z,662.46
2022-08-11T11:56:34.060Z,661.83
2022-08-11T11:57:33.716Z,661.66
2022-08-11T11:58:33.664Z,660.94
2022-08-11T11:59:33.718Z,660.35
2022-08-11T12:00:34.023Z,659.70
2022-08-11T12:01:33.655Z,660.31
2022-08-11T12:02:33.624Z,663.50
2022-08-11T12:03:33.715Z,664.91
2022-08-11T12:04:33.641Z,664.70
2022-08-11T12:05:33.636Z,663.95
2022-08-11T12:06:33.605Z,663.13
2022-08-11T12:07:34.150Z,662.36
2022-08-11T12:08:33.574Z,662.15
2022-08-11T12:09:33.585Z,663.89
2022-08-11T12:10:33.766Z,663.76
2022-08-11T12:11:33.547Z,663.71
2022-08-11T12:12:33.534Z,663.17
2022-08-11T12:13:33.516Z,662.32
2022-08-11T12:14:33.531Z,661.30
2022-08-11T12:16:34.633Z,661.48
2022-08-11T12:16:36.605Z,661.32
2022-08-11T12:17:33.580Z,662.02
2022-08-11T12:18:33.464Z,662.05
2022-08-11T12:19:35.845Z,662.09
2022-08-11T12:20:34.247Z,661.97
2022-08-11T12:21:33.425Z,662.78
2022-08-11T12:22:33.421Z,661.45
2022-08-11T12:23:33.410Z,661.26
2022-08-11T12:24:33.413Z,660.06
2022-08-11T12:25:33.439Z,660.22
2022-08-11T12:26:33.406Z,661.04
2022-08-11T12:27:33.368Z,661.17
2022-08-11T12:28:33.383Z,660.69
2022-08-11T12:29:33.346Z,660.62
2022-08-11T12:30:33.416Z,660.84
2022-08-11T12:31:48.463Z,660.73
2022-08-11T12:32:33.474Z,661.13
2022-08-11T12:33:36.226Z,661.25
2022-08-11T12:34:33.305Z,660.92
2022-08-11T12:35:33.349Z,662.63
2022-08-11T12:36:33.407Z,663.27
2022-08-11T12:37:33.380Z,663.34
2022-08-11T12:38:33.248Z,663.09
2022-08-11T12:40:16.170Z,662.48
2022-08-11T12:40:43.688Z,661.79
2022-08-11T12:41:33.249Z,660.96
2022-08-11T12:42:33.207Z,660.48
2022-08-11T12:43:38.374Z,659.95
2022-08-11T12:44:33.199Z,659.60
2022-08-11T12:45:33.208Z,659.20
2022-08-11T12:46:33.170Z,659.22
2022-08-11T12:47:33.255Z,658.99